createdAt,value
2023-01-30T00:00:26.319Z,9.745519
2023-01-30T00:01:26.311Z,9.745519
2023-01-30T00:02:26.452Z,9.745519
2023-01-30T00:03:26.293Z,9.745519
2023-01-30T00:04:26.291Z,9.745519
2023-01-30T00:05:26.280Z,9.745519
2023-01-30T00:06:26.279Z,9.745642
2023-01-30T00:07:26.296Z,9.745419
2023-01-30T00:08:26.260Z,9.745971
2023-01-30T00:09:26.248Z,9.747086
2023-01-30T00:10:26.236Z,9.747086
2023-01-30T00:11:26.238Z,9.746391
2023-01-30T00:12:26.268Z,9.746655
2023-01-30T00:13:26.223Z,9.746513
2023-01-30T00:14:26.213Z,9.746814
2023-01-30T00:15:26.207Z,9.746595
2023-01-30T00:16:26.274Z,9.746664
2023-01-30T00:17:26.220Z,9.746664
2023-01-30T00:18:26.194Z,9.746770
2023-01-30T00:19:26.174Z,9.746770
2023-01-30T00:20:26.176Z,9.746770
2023-01-30T00:21:26.165Z,9.747310
2023-01-30T00:22:26.189Z,9.747310
2023-01-30T00:23:26.148Z,9.746790
2023-01-30T00:24:26.210Z,9.746790
2023-01-30T00:25:26.246Z,9.746790
2023-01-30T00:26:26.137Z,9.746790
2023-01-30T00:27:26.138Z,9.746790
2023-01-30T00:28:26.111Z,9.746790
2023-01-30T00:29:26.100Z,9.746790
2023-01-30T00:30:26.144Z,9.746781
2023-01-30T00:31:26.148Z,9.746459
2023-01-30T00:32:26.100Z,9.746336
2023-01-30T00:33:26.079Z,9.746207
2023-01-30T00:34:26.064Z,9.746202
2023-01-30T00:35:26.061Z,9.746345
2023-01-30T00:36:26.060Z,9.745982
2023-01-30T00:37:26.063Z,9.746159
2023-01-30T00:38:26.028Z,9.746041
2023-01-30T00:39:26.022Z,9.746037
2023-01-30T00:40:26.019Z,9.746252
2023-01-30T00:41:26.007Z,9.745892
2023-01-30T00:42:26.022Z,9.745694
2023-01-30T00:43:25.992Z,9.745613
2023-01-30T00:44:25.986Z,9.745667
2023-01-30T00:45:25.977Z,9.745915
2023-01-30T00:46:25.968Z,9.745822
2023-01-30T00:47:25.986Z,9.745398
2023-01-30T00:48:25.956Z,9.745529
2023-01-30T00:49:25.947Z,9.745505
2023-01-30T00:50:25.938Z,9.745758
2023-01-30T00:51:25.929Z,9.745945
2023-01-30T00:52:25.955Z,9.745837
2023-01-30T00:53:25.946Z,9.745480
2023-01-30T00:54:25.951Z,9.745186
2023-01-30T00:55:25.902Z,9.745350
2023-01-30T00:56:25.895Z,9.745404
2023-01-30T00:57:25.914Z,9.745472
2023-01-30T00:58:25.878Z,9.745324
2023-01-30T00:59:25.887Z,9.745479
2023-01-30T01:00:25.863Z,9.745428
2023-01-30T01:01:25.860Z,9.745333
2023-01-30T01:02:25.881Z,9.745466
2023-01-30T01:03:25.841Z,9.745563
2023-01-30T01:04:25.847Z,9.745348
2023-01-30T01:05:25.827Z,9.745408
2023-01-30T01:06:25.814Z,9.745402
2023-01-30T01:07:25.842Z,9.745279
2023-01-30T01:08:25.805Z,9.745336
2023-01-30T01:09:25.799Z,9.745415
2023-01-30T01:10:25.792Z,9.745445
2023-01-30T01:11:25.803Z,9.745255
2023-01-30T01:12:25.803Z,9.745473
2023-01-30T01:13:25.810Z,9.745432
2023-01-30T01:14:25.767Z,9.745176
2023-01-30T01:15:25.756Z,9.745189
2023-01-30T01:16:25.798Z,9.745271
2023-01-30T01:17:25.771Z,9.745271
2023-01-30T01:18:25.735Z,9.745234
2023-01-30T01:19:25.721Z,9.745321
2023-01-30T01:20:25.711Z,9.745260
2023-01-30T01:21:25.708Z,9.745012
2023-01-30T01:22:25.724Z,9.745123
2023-01-30T01:23:25.695Z,9.745483
2023-01-30T01:24:25.698Z,9.745351
2023-01-30T01:25:25.681Z,9.745242
2023-01-30T01:26:25.735Z,9.745190
2023-01-30T01:27:25.688Z,9.745156
2023-01-30T01:28:25.657Z,9.745287
2023-01-30T01:29:25.656Z,9.745486
2023-01-30T01:30:25.648Z,9.745401
2023-01-30T01:31:25.838Z,9.745230
2023-01-30T01:32:25.658Z,9.745270
2023-01-30T01:33:25.626Z,9.745320
2023-01-30T01:34:25.616Z,9.745231
2023-01-30T01:35:25.613Z,9.745084
2023-01-30T01:36:51.494Z,9.745174
2023-01-30T01:37:27.620Z,9.745162
2023-01-30T01:38:25.587Z,9.745335
2023-01-30T01:39:25.576Z,9.745193
2023-01-30T01:40:25.574Z,9.745269
2023-01-30T01:41:26.572Z,9.745323
2023-01-30T01:42:25.579Z,9.745161
2023-01-30T01:43:26.550Z,9.745527
2023-01-30T01:44:25.543Z,9.745242
2023-01-30T01:45:25.540Z,9.745036
2023-01-30T01:46:25.540Z,9.745434
2023-01-30T01:47:25.554Z,9.745416
2023-01-30T01:48:25.516Z,9.745263
2023-01-30T01:49:25.515Z,9.745322
2023-01-30T01:50:25.498Z,9.745553
2023-01-30T01:51:25.495Z,9.745455
2023-01-30T01:52:25.481Z,9.745377
2023-01-30T01:53:25.503Z,9.745425
2023-01-30T01:54:25.466Z,9.745377
2023-01-30T01:55:25.466Z,9.745389
2023-01-30T01:56:25.455Z,9.745416
2023-01-30T01:57:25.443Z,9.745248
2023-01-30T01:58:25.466Z,9.744916
2023-01-30T01:59:25.433Z,9.745196
2023-01-30T02:00:25.425Z,9.745185
2023-01-30T02:01:25.473Z,9.745191
2023-01-30T02:02:25.459Z,9.745307
2023-01-30T02:03:25.427Z,9.745485
2023-01-30T02:04:25.399Z,9.745545
2023-01-30T02:05:25.391Z,9.745506
2023-01-30T02:06:25.378Z,9.745292
2023-01-30T02:07:25.380Z,9.745345
2023-01-30T02:08:25.407Z,9.745519
2023-01-30T02:09:25.358Z,9.745690
2023-01-30T02:10:25.356Z,9.745679
2023-01-30T02:11:25.341Z,9.745624
2023-01-30T02:12:25.342Z,9.745663
2023-01-30T02:13:25.368Z,9.745651
2023-01-30T02:14:25.329Z,9.745071
2023-01-30T02:15:25.323Z,9.745070
2023-01-30T02:16:25.308Z,9.745448
2023-01-30T02:17:25.335Z,9.745403
2023-01-30T02:18:25.321Z,9.745565
2023-01-30T02:19:25.287Z,9.745522
2023-01-30T02:20:25.274Z,9.745776
2023-01-30T02:21:25.264Z,9.745897
2023-01-30T02:22:25.258Z,9.746088
2023-01-30T02:23:25.287Z,9.745529
2023-01-30T02:24:25.250Z,9.745476
2023-01-30T02:25:25.238Z,9.745358
2023-01-30T02:26:25.286Z,9.745796
2023-01-30T02:27:25.223Z,9.746104
2023-01-30T02:28:25.237Z,9.745324
2023-01-30T02:29:25.207Z,9.745234
2023-01-30T02:30:25.306Z,9.745592
2023-01-30T02:31:25.239Z,9.745545
2023-01-30T02:32:25.188Z,9.745705
2023-01-30T02:33:25.202Z,9.745829
2023-01-30T02:34:25.167Z,9.745020
2023-01-30T02:35:25.163Z,9.745120
2023-01-30T02:36:25.151Z,9.745176
2023-01-30T02:37:25.154Z,9.745091
2023-01-30T02:38:25.161Z,9.745066
2023-01-30T02:39:25.128Z,9.745437
2023-01-30T02:40:25.121Z,9.745461
2023-01-30T02:41:25.117Z,9.745282
2023-01-30T02:42:25.110Z,9.745066
2023-01-30T02:43:25.130Z,9.745069
2023-01-30T02:44:25.095Z,9.745418
2023-01-30T02:45:25.091Z,9.745474
2023-01-30T02:46:25.124Z,9.745044
2023-01-30T02:47:25.073Z,9.744934
2023-01-30T02:48:25.107Z,9.744720
2023-01-30T02:49:25.061Z,9.745019
2023-01-30T02:50:25.051Z,9.745179
2023-01-30T02:51:25.040Z,9.745087
2023-01-30T02:52:25.036Z,9.745336
2023-01-30T02:53:25.055Z,9.745212
2023-01-30T02:54:25.017Z,9.745303
2023-01-30T02:55:25.015Z,9.745741
2023-01-30T02:56:25.011Z,9.745665
2023-01-30T02:57:25.003Z,9.745534
2023-01-30T02:58:24.998Z,9.745534
2023-01-30T02:59:25.009Z,9.745534
2023-01-30T03:00:25.978Z,9.745534
2023-01-30T03:01:24.992Z,9.745534
2023-01-30T03:02:24.976Z,9.745534
2023-01-30T03:03:24.956Z,9.745534
2023-01-30T03:04:24.975Z,9.746364
2023-01-30T03:05:24.940Z,9.746364
2023-01-30T03:06:24.933Z,9.746364
2023-01-30T03:07:24.947Z,9.747297
2023-01-30T03:08:24.923Z,9.745989
2023-01-30T03:09:24.939Z,9.745581
2023-01-30T03:10:24.901Z,9.745460
2023-01-30T03:11:24.899Z,9.745676
2023-01-30T03:12:24.892Z,9.745829
2023-01-30T03:13:24.884Z,9.744691
2023-01-30T03:14:24.904Z,9.744691
2023-01-30T03:15:24.869Z,9.745515
2023-01-30T03:16:24.890Z,9.745323
2023-01-30T03:17:24.863Z,9.745368
2023-01-30T03:18:24.847Z,9.745403
2023-01-30T03:19:24.860Z,9.745146
2023-01-30T03:20:24.832Z,9.745276
2023-01-30T03:21:24.818Z,9.745479
2023-01-30T03:22:24.818Z,9.745495
2023-01-30T03:23:24.828Z,9.745552
2023-01-30T03:24:24.826Z,9.745584
2023-01-30T03:25:24.799Z,9.745836
2023-01-30T03:26:24.813Z,9.745539
2023-01-30T03:27:24.783Z,9.745691
2023-01-30T03:28:24.779Z,9.745684
2023-01-30T03:29:24.793Z,9.745678
2023-01-30T03:30:24.753Z,9.745612
2023-01-30T03:31:24.840Z,9.745863
2023-01-30T03:32:24.738Z,9.745796
2023-01-30T03:33:24.734Z,9.745946
2023-01-30T03:34:24.755Z,9.745679
2023-01-30T03:35:24.713Z,9.745518
2023-01-30T03:36:24.707Z,9.745311
2023-01-30T03:37:24.703Z,9.745510
2023-01-30T03:38:24.695Z,9.745483
2023-01-30T03:39:24.713Z,9.746030
2023-01-30T03:40:24.680Z,9.746341
2023-01-30T03:41:24.672Z,9.745529
2023-01-30T03:42:24.674Z,9.745733
2023-01-30T03:43:24.657Z,9.745738
2023-01-30T03:44:24.676Z,9.745330
2023-01-30T03:45:24.645Z,9.744917
2023-01-30T03:46:24.706Z,9.745367
2023-01-30T03:47:24.639Z,9.745526
2023-01-30T03:48:24.627Z,9.745446
2023-01-30T03:49:24.653Z,9.745531
2023-01-30T03:50:24.609Z,9.745484
2023-01-30T03:51:24.620Z,9.745375
2023-01-30T03:52:24.596Z,9.745675
2023-01-30T03:53:24.583Z,9.745656
2023-01-30T03:54:24.609Z,9.745581
2023-01-30T03:55:24.595Z,9.746030
2023-01-30T03:56:24.612Z,9.746112
2023-01-30T03:57:24.569Z,9.745623
2023-01-30T03:58:24.557Z,9.745728
2023-01-30T03:59:24.569Z,9.745568
2023-01-30T04:00:24.531Z,9.745581
2023-01-30T04:01:24.588Z,9.745668
2023-01-30T04:02:24.558Z,9.745670
2023-01-30T04:03:24.516Z,9.745589
2023-01-30T04:04:24.536Z,9.745846
2023-01-30T04:05:24.497Z,9.745684
2023-01-30T04:06:24.497Z,9.745856
2023-01-30T04:07:24.486Z,9.745672
2023-01-30T04:08:24.478Z,9.745689
2023-01-30T04:09:24.497Z,9.745594
2023-01-30T04:10:24.463Z,9.745546
2023-01-30T04:11:24.458Z,9.745405
2023-01-30T04:12:24.445Z,9.745357
2023-01-30T04:13:24.437Z,9.745728
2023-01-30T04:14:24.459Z,9.745349
2023-01-30T04:15:24.427Z,9.745378
2023-01-30T04:16:25.528Z,9.745467
2023-01-30T04:17:24.417Z,9.745181
2023-01-30T04:18:24.403Z,9.745515
2023-01-30T04:19:24.421Z,9.745954
2023-01-30T04:20:24.393Z,9.745641
2023-01-30T04:21:24.377Z,9.745400
2023-01-30T04:22:24.369Z,9.745593
2023-01-30T04:23:24.380Z,9.745609
2023-01-30T04:24:24.394Z,9.745857
2023-01-30T04:25:24.349Z,9.745801
2023-01-30T04:26:24.410Z,9.745415
2023-01-30T04:27:24.335Z,9.745445
2023-01-30T04:28:24.336Z,9.745481
2023-01-30T04:29:24.340Z,9.745615
2023-01-30T04:30:24.368Z,9.745550
2023-01-30T04:31:24.310Z,9.745327
2023-01-30T04:32:24.291Z,9.745616
2023-01-30T04:33:24.284Z,9.745408
2023-01-30T04:34:24.305Z,9.745535
2023-01-30T04:35:24.272Z,9.745550
2023-01-30T04:36:24.274Z,9.745346
2023-01-30T04:37:24.257Z,9.745522
2023-01-30T04:38:24.259Z,9.745250
2023-01-30T04:39:24.260Z,9.745621
2023-01-30T04:40:24.236Z,9.746554
2023-01-30T04:41:24.221Z,9.745722
2023-01-30T04:42:24.214Z,9.745412
2023-01-30T04:43:24.209Z,9.745499
2023-01-30T04:44:24.228Z,9.745570
2023-01-30T04:45:24.194Z,9.745542
2023-01-30T04:46:24.193Z,9.745639
2023-01-30T04:47:24.182Z,9.745468
2023-01-30T04:48:24.168Z,9.745822
2023-01-30T04:49:24.187Z,9.745939
2023-01-30T04:50:24.151Z,9.745819
2023-01-30T04:51:24.153Z,9.745664
2023-01-30T04:52:24.138Z,9.745393
2023-01-30T04:53:24.129Z,9.745696
2023-01-30T04:54:24.154Z,9.745768
2023-01-30T04:55:24.111Z,9.745631
2023-01-30T04:56:24.104Z,9.745597
2023-01-30T04:57:24.101Z,9.745603
2023-01-30T04:58:24.107Z,9.745614
2023-01-30T04:59:24.110Z,9.745621
2023-01-30T05:00:24.099Z,9.745467
2023-01-30T05:01:24.083Z,9.745757
2023-01-30T05:02:24.133Z,9.745945
2023-01-30T05:03:24.055Z,9.745983
2023-01-30T05:04:24.071Z,9.746306
2023-01-30T05:05:24.040Z,9.746306
2023-01-30T05:06:24.030Z,9.746306
2023-01-30T05:07:24.026Z,9.746306
2023-01-30T05:08:24.022Z,9.746306
2023-01-30T05:09:24.035Z,9.746306
2023-01-30T05:10:23.999Z,9.746306
2023-01-30T05:11:23.988Z,9.747708
2023-01-30T05:12:23.984Z,9.747265
2023-01-30T05:13:23.978Z,9.747042
2023-01-30T05:14:23.974Z,9.746539
2023-01-30T05:15:24.000Z,9.746729
2023-01-30T05:16:23.958Z,9.746371
2023-01-30T05:17:23.953Z,9.745832
2023-01-30T05:18:23.938Z,9.745816
2023-01-30T05:19:23.927Z,9.745390
2023-01-30T05:20:23.938Z,9.745627
2023-01-30T05:21:24.914Z,9.745631
2023-01-30T05:22:23.914Z,9.745522
2023-01-30T05:23:23.905Z,9.745708
2023-01-30T05:24:23.904Z,9.745730
2023-01-30T05:25:23.912Z,9.745265
2023-01-30T05:26:23.915Z,9.745545
2023-01-30T05:27:23.869Z,9.745463
2023-01-30T05:28:23.865Z,9.745322
2023-01-30T05:29:23.845Z,9.745705
2023-01-30T05:30:24.926Z,9.745244
2023-01-30T05:31:23.920Z,9.745208
2023-01-30T05:32:23.831Z,9.744925
2023-01-30T05:33:23.826Z,9.745311
2023-01-30T05:34:23.818Z,9.745294
2023-01-30T05:35:23.843Z,9.745398
2023-01-30T05:36:23.827Z,9.745232
2023-01-30T05:37:23.790Z,9.745711
2023-01-30T05:38:23.788Z,9.745748
2023-01-30T05:39:23.789Z,9.745843
2023-01-30T05:40:23.796Z,9.745546
2023-01-30T05:41:23.760Z,9.745189
2023-01-30T05:42:23.760Z,9.745547
2023-01-30T05:43:23.748Z,9.745098
2023-01-30T05:44:23.741Z,9.744902
2023-01-30T05:45:23.752Z,9.744635
2023-01-30T05:46:23.744Z,9.744697
2023-01-30T05:47:23.720Z,9.744569
2023-01-30T05:48:23.714Z,9.744569
2023-01-30T05:49:23.702Z,9.744569
2023-01-30T05:50:23.709Z,9.744569
2023-01-30T05:51:24.679Z,9.744569
2023-01-30T05:52:23.670Z,9.744569
2023-01-30T05:53:23.676Z,9.744569
2023-01-30T05:54:23.672Z,9.744569
2023-01-30T05:55:23.677Z,9.744569
2023-01-30T05:56:23.658Z,9.744569
2023-01-30T05:57:23.634Z,9.744202
2023-01-30T05:58:23.629Z,9.744265
2023-01-30T05:59:23.620Z,9.744265
2023-01-30T06:00:23.638Z,9.744653
2023-01-30T06:01:23.607Z,9.745202
2023-01-30T06:02:23.622Z,9.744786
2023-01-30T06:03:23.598Z,9.745218
2023-01-30T06:04:23.582Z,9.745393
2023-01-30T06:05:23.601Z,9.745393
2023-01-30T06:06:23.576Z,9.745393
2023-01-30T06:07:23.556Z,9.745393
2023-01-30T06:08:23.551Z,9.745393
2023-01-30T06:09:23.547Z,9.745393
2023-01-30T06:10:23.559Z,9.745393
2023-01-30T06:11:23.535Z,9.745393
2023-01-30T06:12:23.521Z,9.745393
2023-01-30T06:13:23.519Z,9.745393
2023-01-30T06:14:23.502Z,9.745393
2023-01-30T06:15:23.527Z,9.745393
2023-01-30T06:16:23.563Z,9.745393
2023-01-30T06:17:23.481Z,9.745393
2023-01-30T06:18:23.480Z,9.745393
2023-01-30T06:19:23.454Z,9.745393
2023-01-30T06:20:24.481Z,9.745393
2023-01-30T06:21:23.459Z,9.745393
2023-01-30T06:22:23.442Z,9.745393
2023-01-30T06:23:23.453Z,9.745393
2023-01-30T06:24:23.466Z,9.745393
2023-01-30T06:25:23.445Z,9.745393
2023-01-30T06:26:23.450Z,9.745393
2023-01-30T06:27:24.405Z,9.745393
2023-01-30T06:28:23.399Z,9.745393
2023-01-30T06:29:23.385Z,9.745393
2023-01-30T06:30:23.420Z,9.745393
2023-01-30T06:31:23.409Z,9.745393
2023-01-30T06:32:23.371Z,9.745393
2023-01-30T06:33:23.353Z,9.745393
2023-01-30T06:34:23.351Z,9.745393
2023-01-30T06:35:23.366Z,9.745393
2023-01-30T06:36:23.341Z,9.745393
2023-01-30T06:37:23.337Z,9.745533
2023-01-30T06:38:23.327Z,9.745533
2023-01-30T06:39:23.315Z,9.745502
2023-01-30T06:40:23.327Z,9.745090
2023-01-30T06:41:23.303Z,9.745450
2023-01-30T06:42:23.298Z,9.744876
2023-01-30T06:43:23.286Z,9.745272
2023-01-30T06:44:23.272Z,9.745770
2023-01-30T06:45:23.293Z,9.745846
2023-01-30T06:46:23.273Z,9.745599
2023-01-30T06:47:23.253Z,9.745532
2023-01-30T06:48:23.244Z,9.745393
2023-01-30T06:49:23.232Z,9.745726
2023-01-30T06:50:23.256Z,9.745391
2023-01-30T06:51:23.221Z,9.745690
2023-01-30T06:52:23.223Z,9.745908
2023-01-30T06:53:23.202Z,9.745595
2023-01-30T06:54:23.195Z,9.745745
2023-01-30T06:55:23.221Z,9.745537
2023-01-30T06:56:23.180Z,9.745686
2023-01-30T06:57:23.171Z,9.745326
2023-01-30T06:58:23.163Z,9.745177
2023-01-30T06:59:23.165Z,9.745100
2023-01-30T07:00:23.178Z,9.745393
2023-01-30T07:01:23.140Z,9.745337
2023-01-30T07:02:23.134Z,9.745588
2023-01-30T07:03:23.126Z,9.745434
2023-01-30T07:04:23.144Z,9.745464
2023-01-30T07:05:23.135Z,9.745441
2023-01-30T07:06:23.104Z,9.745376
2023-01-30T07:07:23.092Z,9.745432
2023-01-30T07:08:24.326Z,9.745526
2023-01-30T07:09:24.075Z,9.745478
2023-01-30T07:10:23.105Z,9.745466
2023-01-30T07:11:23.067Z,9.745567
2023-01-30T07:12:23.053Z,9.745556
2023-01-30T07:13:23.070Z,9.745502
2023-01-30T07:14:23.043Z,9.745369
2023-01-30T07:15:23.059Z,9.745289
2023-01-30T07:16:23.156Z,9.745408
2023-01-30T07:17:23.016Z,9.745395
2023-01-30T07:18:23.011Z,9.745421
2023-01-30T07:19:23.010Z,9.745491
2023-01-30T07:20:23.016Z,9.745391
2023-01-30T07:21:22.986Z,9.745509
2023-01-30T07:22:22.985Z,9.745457
2023-01-30T07:23:22.978Z,9.745414
2023-01-30T07:24:22.963Z,9.745503
2023-01-30T07:25:22.999Z,9.745385
2023-01-30T07:26:23.020Z,9.745438
2023-01-30T07:27:22.940Z,9.745394
2023-01-30T07:28:22.935Z,9.745498
2023-01-30T07:29:22.926Z,9.745319
2023-01-30T07:30:22.964Z,9.745409
2023-01-30T07:31:22.928Z,9.745667
2023-01-30T07:32:22.956Z,9.745870
2023-01-30T07:33:22.892Z,9.745742
2023-01-30T07:34:22.886Z,9.745701
2023-01-30T07:35:23.204Z,9.745627
2023-01-30T07:36:22.870Z,9.746096
2023-01-30T07:37:22.861Z,9.745718
2023-01-30T07:38:22.863Z,9.745648
2023-01-30T07:39:22.849Z,9.745327
2023-01-30T07:40:22.880Z,9.745297
2023-01-30T07:41:22.832Z,9.745475
2023-01-30T07:42:22.820Z,9.745573
2023-01-30T07:43:23.819Z,9.745204
2023-01-30T07:44:22.815Z,9.745382
2023-01-30T07:45:22.833Z,9.745600
2023-01-30T07:46:22.797Z,9.745357
2023-01-30T07:47:22.790Z,9.745788
2023-01-30T07:48:22.792Z,9.745648
2023-01-30T07:49:22.780Z,9.745440
2023-01-30T07:50:22.804Z,9.745330
2023-01-30T07:51:22.760Z,9.745092
2023-01-30T07:52:22.753Z,9.745275
2023-01-30T07:53:22.752Z,9.745483
2023-01-30T07:54:22.741Z,9.745596
2023-01-30T07:55:22.901Z,9.745520
2023-01-30T07:56:22.723Z,9.745941
2023-01-30T07:57:22.720Z,9.745899
2023-01-30T07:58:22.728Z,9.745741
2023-01-30T07:59:22.698Z,9.745760
2023-01-30T08:00:22.732Z,9.746038
2023-01-30T08:01:22.759Z,9.745568
2023-01-30T08:02:22.677Z,9.745528
2023-01-30T08:03:22.670Z,9.745340
2023-01-30T08:04:22.674Z,9.745289
2023-01-30T08:05:22.659Z,9.745582
2023-01-30T08:06:22.677Z,9.745606
2023-01-30T08:07:22.643Z,9.745626
2023-01-30T08:08:22.633Z,9.745486
2023-01-30T08:09:22.626Z,9.745519
2023-01-30T08:10:22.624Z,9.745527
2023-01-30T08:11:22.635Z,9.745533
2023-01-30T08:12:22.601Z,9.745430
2023-01-30T08:13:22.601Z,9.745541
2023-01-30T08:14:22.596Z,9.745552
2023-01-30T08:15:23.111Z,9.746007
2023-01-30T08:16:23.621Z,9.745666
2023-01-30T08:17:22.590Z,9.745588
2023-01-30T08:18:22.563Z,9.745954
2023-01-30T08:19:22.553Z,9.745617
2023-01-30T08:20:22.542Z,9.745484
2023-01-30T08:21:22.560Z,9.745371
2023-01-30T08:22:22.534Z,9.745401
2023-01-30T08:23:22.521Z,9.745405
2023-01-30T08:24:22.510Z,9.745417
2023-01-30T08:25:22.505Z,9.745432
2023-01-30T08:26:22.600Z,9.745362
2023-01-30T08:27:22.498Z,9.745300
2023-01-30T08:28:22.484Z,9.745570
2023-01-30T08:29:22.476Z,9.745752
2023-01-30T08:30:22.659Z,9.745343
2023-01-30T08:31:22.522Z,9.745371
2023-01-30T08:32:22.455Z,9.745562
2023-01-30T08:33:22.459Z,9.745552
2023-01-30T08:34:22.457Z,9.745470
2023-01-30T08:35:22.444Z,9.745378
2023-01-30T08:36:22.446Z,9.745439
2023-01-30T08:37:23.425Z,9.745905
2023-01-30T08:38:22.418Z,9.745602
2023-01-30T08:39:22.405Z,9.745546
2023-01-30T08:40:22.407Z,9.745498
2023-01-30T08:41:22.420Z,9.745547
2023-01-30T08:42:22.387Z,9.745324
2023-01-30T08:43:22.379Z,9.745385
2023-01-30T08:44:22.379Z,9.745313
2023-01-30T08:45:22.363Z,9.745204
2023-01-30T08:46:22.393Z,9.745353
2023-01-30T08:47:22.351Z,9.745948
2023-01-30T08:48:22.353Z,9.745908
2023-01-30T08:49:22.331Z,9.745353
2023-01-30T08:50:22.319Z,9.745060
2023-01-30T08:51:22.335Z,9.745469
2023-01-30T08:52:22.306Z,9.745071
2023-01-30T08:53:22.300Z,9.745438
2023-01-30T08:54:22.284Z,9.745197
2023-01-30T08:55:22.289Z,9.745171
2023-01-30T08:56:22.296Z,9.745559
2023-01-30T08:57:22.262Z,9.745863
2023-01-30T08:58:22.263Z,9.745277
2023-01-30T08:59:22.249Z,9.745230
2023-01-30T09:00:22.242Z,9.745201
2023-01-30T09:01:22.301Z,9.745309
2023-01-30T09:02:23.262Z,9.745504
2023-01-30T09:03:22.232Z,9.745378
2023-01-30T09:04:22.216Z,9.745403
2023-01-30T09:05:22.204Z,9.745331
2023-01-30T09:06:23.811Z,9.745281
2023-01-30T09:07:22.193Z,9.745363
2023-01-30T09:08:22.197Z,9.745345
2023-01-30T09:09:22.170Z,9.745165
2023-01-30T09:10:22.170Z,9.745263
2023-01-30T09:11:22.184Z,9.744467
2023-01-30T09:12:22.157Z,9.744799
2023-01-30T09:13:22.141Z,9.745184
2023-01-30T09:14:23.168Z,9.745181
2023-01-30T09:15:22.122Z,9.745123
2023-01-30T09:16:22.193Z,9.745077
2023-01-30T09:17:22.115Z,9.745199
2023-01-30T09:18:22.102Z,9.745065
2023-01-30T09:19:22.090Z,9.745164
2023-01-30T09:20:22.089Z,9.745214
2023-01-30T09:21:22.121Z,9.744957
2023-01-30T09:22:22.071Z,9.744919
2023-01-30T09:23:22.064Z,9.745246
2023-01-30T09:24:22.066Z,9.745179
2023-01-30T09:25:22.046Z,9.745153
2023-01-30T09:26:22.123Z,9.744947
2023-01-30T09:27:22.036Z,9.745035
2023-01-30T09:28:22.023Z,9.745511
2023-01-30T09:29:22.022Z,9.745173
2023-01-30T09:30:22.145Z,9.744685
2023-01-30T09:31:22.117Z,9.744685
2023-01-30T09:32:21.988Z,9.745361
2023-01-30T09:33:21.987Z,9.745243
2023-01-30T09:34:21.970Z,9.745265
2023-01-30T09:35:21.960Z,9.745265
2023-01-30T09:36:22.003Z,9.745265
2023-01-30T09:37:21.953Z,9.745265
2023-01-30T09:38:21.946Z,9.745265
2023-01-30T09:39:21.938Z,9.745265
2023-01-30T09:40:21.922Z,9.745265
2023-01-30T09:41:21.939Z,9.745265
2023-01-30T09:42:21.907Z,9.745265
2023-01-30T09:43:21.902Z,9.745265
2023-01-30T09:44:21.897Z,9.743616
2023-01-30T09:45:21.883Z,9.743616
2023-01-30T09:46:21.921Z,9.743616
2023-01-30T09:47:21.875Z,9.743616
2023-01-30T09:48:21.879Z,9.743784
2023-01-30T09:49:21.854Z,9.743784
2023-01-30T09:50:21.915Z,9.743784
2023-01-30T09:51:21.890Z,9.743784
2023-01-30T09:52:21.822Z,9.743784
2023-01-30T09:53:21.829Z,9.745446
2023-01-30T09:54:21.816Z,9.745028
2023-01-30T09:55:21.830Z,9.745289
2023-01-30T09:56:21.821Z,9.745261
2023-01-30T09:57:22.534Z,9.745498
2023-01-30T09:58:21.785Z,9.745910
2023-01-30T09:59:21.801Z,9.745795
2023-01-30T10:00:21.752Z,9.745987
2023-01-30T10:01:22.780Z,9.745835
2023-01-30T10:02:21.747Z,9.745818
2023-01-30T10:03:21.765Z,9.745706
2023-01-30T10:04:21.755Z,9.746009
2023-01-30T10:05:21.719Z,9.745642
2023-01-30T10:06:21.743Z,9.745800
2023-01-30T10:07:21.766Z,9.745585
2023-01-30T10:08:21.704Z,9.745407
2023-01-30T10:09:21.692Z,9.745338
2023-01-30T10:10:21.683Z,9.745415
2023-01-30T10:11:21.681Z,9.745381
2023-01-30T10:12:21.700Z,9.745223
2023-01-30T10:13:21.657Z,9.744946
2023-01-30T10:14:21.650Z,9.745040
2023-01-30T10:15:21.647Z,9.745496
2023-01-30T10:16:21.703Z,9.745419
2023-01-30T10:17:21.669Z,9.745275
2023-01-30T10:18:21.630Z,9.745320
2023-01-30T10:19:34.755Z,9.745365
2023-01-30T10:20:23.985Z,9.745243
2023-01-30T10:21:21.605Z,9.745445
2023-01-30T10:22:21.608Z,9.745358
2023-01-30T10:23:21.583Z,9.745351
2023-01-30T10:24:21.567Z,9.745196
2023-01-30T10:25:21.568Z,9.745050
2023-01-30T10:26:21.600Z,9.745090
2023-01-30T10:27:21.572Z,9.744955
2023-01-30T10:28:21.539Z,9.745199
2023-01-30T10:29:21.533Z,9.745228
2023-01-30T10:30:21.938Z,9.745461
2023-01-30T10:31:21.609Z,9.745513
2023-01-30T10:32:21.537Z,9.745431
2023-01-30T10:33:21.505Z,9.745388
2023-01-30T10:34:21.493Z,9.745208
2023-01-30T10:35:21.485Z,9.745381
2023-01-30T10:36:21.480Z,9.745411
2023-01-30T10:37:21.493Z,9.745449
2023-01-30T10:38:21.466Z,9.745406
2023-01-30T10:39:21.455Z,9.745483
2023-01-30T10:40:21.563Z,9.745375
2023-01-30T10:41:21.439Z,9.745232
2023-01-30T10:42:21.451Z,9.745369
2023-01-30T10:43:21.420Z,9.745403
2023-01-30T10:44:21.416Z,9.745313
2023-01-30T10:45:21.426Z,9.746061
2023-01-30T10:46:21.439Z,9.745690
2023-01-30T10:47:22.995Z,9.745585
2023-01-30T10:48:26.544Z,9.745527
2023-01-30T10:49:23.378Z,9.745376
2023-01-30T10:50:21.608Z,9.745420
2023-01-30T10:51:21.360Z,9.745697
2023-01-30T10:52:21.377Z,9.745517
2023-01-30T10:53:21.355Z,9.745663
2023-01-30T10:54:21.336Z,9.745590
2023-01-30T10:55:36.061Z,9.745687
2023-01-30T10:56:23.321Z,9.745757
2023-01-30T10:57:21.337Z,9.745684
2023-01-30T10:58:21.305Z,9.745614
2023-01-30T10:59:21.293Z,9.745525
2023-01-30T11:00:21.422Z,9.745569
2023-01-30T11:01:21.348Z,9.745573
2023-01-30T11:02:21.303Z,9.745468
2023-01-30T11:03:21.270Z,9.745550
2023-01-30T11:04:21.268Z,9.745405
2023-01-30T11:05:21.252Z,9.745473
2023-01-30T11:06:21.247Z,9.745394
2023-01-30T11:07:21.270Z,9.745126
2023-01-30T11:08:21.224Z,9.745339
2023-01-30T11:09:23.195Z,9.745564
2023-01-30T11:10:21.213Z,9.745501
2023-01-30T11:11:21.212Z,9.745475
2023-01-30T11:12:21.192Z,9.745456
2023-01-30T11:13:21.210Z,9.745495
2023-01-30T11:14:21.175Z,9.745524
2023-01-30T11:15:21.160Z,9.745462
2023-01-30T11:16:22.234Z,9.745491
2023-01-30T11:17:21.152Z,9.745447
2023-01-30T11:19:23.135Z,9.745559
2023-01-30T11:20:22.259Z,9.745523
2023-01-30T11:21:22.282Z,9.745591
2023-01-30T11:22:21.117Z,9.745515
2023-01-30T11:23:21.485Z,9.745347
2023-01-30T11:24:22.104Z,9.745668
2023-01-30T11:25:21.423Z,9.745449
2023-01-30T11:26:21.117Z,9.745393
2023-01-30T11:27:21.077Z,9.745488
2023-01-30T11:28:21.097Z,9.745541
2023-01-30T11:29:21.062Z,9.745693
2023-01-30T11:30:21.399Z,9.745692
2023-01-30T11:31:31.532Z,9.745748
2023-01-30T11:32:23.113Z,9.745473
2023-01-30T11:33:21.053Z,9.745802
2023-01-30T11:34:21.030Z,9.745828
2023-01-30T11:35:21.012Z,9.745763
2023-01-30T11:36:21.006Z,9.746009
2023-01-30T11:37:20.997Z,9.745767
2023-01-30T11:38:21.012Z,9.745735
2023-01-30T11:39:20.989Z,9.745730
2023-01-30T11:40:21.411Z,9.745633
2023-01-30T11:41:20.968Z,9.745867
2023-01-30T11:42:20.967Z,9.745599
2023-01-30T11:43:20.990Z,9.745414
2023-01-30T11:44:20.948Z,9.745498
2023-01-30T11:45:20.951Z,9.745465